Route Details

Aircraft Information
Group: North America Fleet
Types: B738, B752, B762, B763
Route Data
Distance: 1170nm
Duration: 3h 25m
Origin METAR: CYEG 160000Z 26003KT 190V360 20SM FEW060 SCT180 BKN230 27/12 A2999 RMK CU2AC1CI3 TCU ASOCTD SLP158 DENSITY ALT 4200FT
Dest. METAR: KONT 152353Z 25011G18KT 10SM FEW120 FEW180 36/13 A2978 RMK AO2 SLP062 CB DSNT E AND SE T03560133 10367 20311 56016
Freight Data
(for Aug 16, 2022)
Load Factor:
69%
Manifested Cargo: 45,758lbs
Financial History
Total Freight: 0lbs
Average Load: 0lbs/flt
Fuel Used: 0lbs
Avg. Fuel Used: 0lbs/flt
Fuel Expense: $0
Avg. Fuel Expense: $0
Avg. Fuel Cost: $0/lbs
Total Gross Income: $0
Pilot Pay: $0
Total Expenses: $0
Total Revenue: $0
Average Revenue: $0

Capitol Logistics 305




CYEG
Edmonton International Airport
Edmonton, CA
KONT
Ontario International Airport
Ontario, US

Activity Log

Date Flight Route Aircraft Duration
No Flights Yet